sensor_id;sensor_type;location;lat;lon;timestamp;P1;durP1;ratioP1;P2;durP2;ratioP2
75061;SDS011;63641;46.526;24.612;2024-02-23T00:02:06;8.80;;;6.35;;
75061;SDS011;63641;46.526;24.612;2024-02-23T00:04:33;7.78;;;5.95;;
75061;SDS011;63641;46.526;24.612;2024-02-23T00:07:00;6.30;;;5.40;;
75061;SDS011;63641;46.526;24.612;2024-02-23T00:09:29;9.07;;;6.22;;
75061;SDS011;63641;46.526;24.612;2024-02-23T00:11:56;8.93;;;6.68;;
75061;SDS011;63641;46.526;24.612;2024-02-23T00:14:23;11.40;;;7.30;;
75061;SDS011;63641;46.526;24.612;2024-02-23T00:16:50;13.63;;;8.82;;
75061;SDS011;63641;46.526;24.612;2024-02-23T00:19:16;18.35;;;10.93;;
75061;SDS011;63641;46.526;24.612;2024-02-23T00:21:46;15.38;;;10.10;;
75061;SDS011;63641;46.526;24.612;2024-02-23T00:24:16;11.85;;;8.35;;
75061;SDS011;63641;46.526;24.612;2024-02-23T00:26:43;21.73;;;14.80;;
75061;SDS011;63641;46.526;24.612;2024-02-23T00:29:11;19.75;;;13.98;;
75061;SDS011;63641;46.526;24.612;2024-02-23T00:31:38;22.05;;;14.55;;
75061;SDS011;63641;46.526;24.612;2024-02-23T00:34:07;17.80;;;13.90;;
75061;SDS011;63641;46.526;24.612;2024-02-23T00:36:39;15.30;;;10.65;;
75061;SDS011;63641;46.526;24.612;2024-02-23T00:39:07;16.08;;;10.65;;
75061;SDS011;63641;46.526;24.612;2024-02-23T00:41:34;15.00;;;9.98;;
75061;SDS011;63641;46.526;24.612;2024-02-23T00:44:05;14.25;;;10.43;;
75061;SDS011;63641;46.526;24.612;2024-02-23T00:46:32;16.90;;;12.50;;
75061;SDS011;63641;46.526;24.612;2024-02-23T00:48:59;20.67;;;14.20;;
75061;SDS011;63641;46.526;24.612;2024-02-23T00:51:26;16.63;;;12.00;;
75061;SDS011;63641;46.526;24.612;2024-02-23T00:53:53;17.40;;;12.00;;
75061;SDS011;63641;46.526;24.612;2024-02-23T00:56:19;18.58;;;11.15;;
75061;SDS011;63641;46.526;24.612;2024-02-23T00:58:52;14.98;;;11.30;;
75061;SDS011;63641;46.526;24.612;2024-02-23T01:01:19;14.10;;;10.75;;
75061;SDS011;63641;46.526;24.612;2024-02-23T01:03:46;14.25;;;9.05;;
75061;SDS011;63641;46.526;24.612;2024-02-23T01:06:13;13.65;;;8.77;;
75061;SDS011;63641;46.526;24.612;2024-02-23T01:08:40;13.18;;;9.25;;
75061;SDS011;63641;46.526;24.612;2024-02-23T01:11:06;13.07;;;8.70;;
75061;SDS011;63641;46.526;24.612;2024-02-23T01:13:33;10.48;;;7.95;;
75061;SDS011;63641;46.526;24.612;2024-02-23T01:16:01;9.20;;;7.72;;
75061;SDS011;63641;46.526;24.612;2024-02-23T01:18:28;8.85;;;7.43;;
75061;SDS011;63641;46.526;24.612;2024-02-23T01:20:56;8.60;;;6.82;;
75061;SDS011;63641;46.526;24.612;2024-02-23T01:23:23;8.32;;;6.85;;
75061;SDS011;63641;46.526;24.612;2024-02-23T01:25:50;8.38;;;6.65;;
75061;SDS011;63641;46.526;24.612;2024-02-23T01:28:17;9.70;;;6.68;;
75061;SDS011;63641;46.526;24.612;2024-02-23T01:30:44;8.10;;;5.90;;
75061;SDS011;63641;46.526;24.612;2024-02-23T01:33:10;7.82;;;6.35;;
75061;SDS011;63641;46.526;24.612;2024-02-23T01:35:37;7.10;;;6.18;;
75061;SDS011;63641;46.526;24.612;2024-02-23T01:38:04;7.82;;;6.40;;
75061;SDS011;63641;46.526;24.612;2024-02-23T01:40:31;11.65;;;6.25;;
75061;SDS011;63641;46.526;24.612;2024-02-23T01:43:02;8.45;;;5.75;;
75061;SDS011;63641;46.526;24.612;2024-02-23T01:45:32;8.52;;;7.10;;
75061;SDS011;63641;46.526;24.612;2024-02-23T01:47:59;7.55;;;6.70;;
75061;SDS011;63641;46.526;24.612;2024-02-23T01:50:28;8.48;;;6.45;;
75061;SDS011;63641;46.526;24.612;2024-02-23T01:52:57;7.50;;;6.35;;
75061;SDS011;63641;46.526;24.612;2024-02-23T01:55:27;7.50;;;6.07;;
75061;SDS011;63641;46.526;24.612;2024-02-23T01:57:57;8.63;;;6.28;;
75061;SDS011;63641;46.526;24.612;2024-02-23T02:00:25;10.68;;;6.35;;
75061;SDS011;63641;46.526;24.612;2024-02-23T02:02:53;8.68;;;6.40;;
75061;SDS011;63641;46.526;24.612;2024-02-23T02:05:20;7.93;;;6.55;;
75061;SDS011;63641;46.526;24.612;2024-02-23T02:07:47;9.38;;;6.55;;
75061;SDS011;63641;46.526;24.612;2024-02-23T02:10:20;7.90;;;6.00;;
75061;SDS011;63641;46.526;24.612;2024-02-23T02:12:47;8.57;;;6.63;;
75061;SDS011;63641;46.526;24.612;2024-02-23T02:15:14;7.53;;;6.20;;
75061;SDS011;63641;46.526;24.612;2024-02-23T02:17:41;8.00;;;7.07;;
75061;SDS011;63641;46.526;24.612;2024-02-23T02:20:12;10.13;;;6.60;;
75061;SDS011;63641;46.526;24.612;2024-02-23T02:22:40;7.57;;;6.10;;
75061;SDS011;63641;46.526;24.612;2024-02-23T02:25:07;10.90;;;6.97;;
75061;SDS011;63641;46.526;24.612;2024-02-23T02:27:35;8.25;;;5.93;;
75061;SDS011;63641;46.526;24.612;2024-02-23T02:30:02;7.05;;;6.22;;
75061;SDS011;63641;46.526;24.612;2024-02-23T02:32:30;9.93;;;7.22;;
75061;SDS011;63641;46.526;24.612;2024-02-23T02:35:02;7.93;;;6.75;;
75061;SDS011;63641;46.526;24.612;2024-02-23T02:37:30;8.45;;;6.70;;
75061;SDS011;63641;46.526;24.612;2024-02-23T02:39:57;8.40;;;6.88;;
75061;SDS011;63641;46.526;24.612;2024-02-23T02:42:24;7.20;;;5.85;;
75061;SDS011;63641;46.526;24.612;2024-02-23T02:44:51;7.50;;;6.30;;
75061;SDS011;63641;46.526;24.612;2024-02-23T02:47:17;7.72;;;6.50;;
75061;SDS011;63641;46.526;24.612;2024-02-23T02:49:44;8.07;;;7.07;;
75061;SDS011;63641;46.526;24.612;2024-02-23T02:52:11;7.80;;;6.07;;
75061;SDS011;63641;46.526;24.612;2024-02-23T02:54:38;8.82;;;6.10;;
75061;SDS011;63641;46.526;24.612;2024-02-23T02:57:04;8.80;;;6.82;;
75061;SDS011;63641;46.526;24.612;2024-02-23T02:59:34;9.18;;;6.82;;
75061;SDS011;63641;46.526;24.612;2024-02-23T03:02:02;9.65;;;7.18;;
75061;SDS011;63641;46.526;24.612;2024-02-23T03:04:29;8.35;;;6.40;;
75061;SDS011;63641;46.526;24.612;2024-02-23T03:06:56;10.38;;;6.15;;
75061;SDS011;63641;46.526;24.612;2024-02-23T03:09:22;7.10;;;6.32;;
75061;SDS011;63641;46.526;24.612;2024-02-23T03:11:49;7.18;;;6.47;;
75061;SDS011;63641;46.526;24.612;2024-02-23T03:14:16;6.93;;;6.07;;
75061;SDS011;63641;46.526;24.612;2024-02-23T03:16:44;6.80;;;5.65;;
75061;SDS011;63641;46.526;24.612;2024-02-23T03:19:14;8.10;;;6.53;;
75061;SDS011;63641;46.526;24.612;2024-02-23T03:21:41;7.72;;;6.15;;
75061;SDS011;63641;46.526;24.612;2024-02-23T03:24:08;7.40;;;6.15;;
75061;SDS011;63641;46.526;24.612;2024-02-23T03:26:35;8.48;;;6.90;;
75061;SDS011;63641;46.526;24.612;2024-02-23T03:29:02;8.98;;;6.10;;
75061;SDS011;63641;46.526;24.612;2024-02-23T03:31:29;9.82;;;7.00;;
75061;SDS011;63641;46.526;24.612;2024-02-23T03:33:56;8.90;;;6.95;;
75061;SDS011;63641;46.526;24.612;2024-02-23T03:36:22;12.20;;;7.65;;
75061;SDS011;63641;46.526;24.612;2024-02-23T03:38:49;10.20;;;7.97;;
75061;SDS011;63641;46.526;24.612;2024-02-23T03:41:16;13.65;;;8.40;;
75061;SDS011;63641;46.526;24.612;2024-02-23T03:43:43;12.65;;;8.30;;
75061;SDS011;63641;46.526;24.612;2024-02-23T03:46:09;10.63;;;7.93;;
75061;SDS011;63641;46.526;24.612;2024-02-23T03:48:38;9.35;;;8.10;;
75061;SDS011;63641;46.526;24.612;2024-02-23T03:51:04;11.40;;;9.10;;
75061;SDS011;63641;46.526;24.612;2024-02-23T03:53:31;9.55;;;7.82;;
75061;SDS011;63641;46.526;24.612;2024-02-23T03:55:58;11.02;;;7.70;;
75061;SDS011;63641;46.526;24.612;2024-02-23T03:58:25;7.72;;;6.93;;
75061;SDS011;63641;46.526;24.612;2024-02-23T04:00:52;8.73;;;7.22;;
75061;SDS011;63641;46.526;24.612;2024-02-23T04:03:19;9.23;;;6.95;;
75061;SDS011;63641;46.526;24.612;2024-02-23T04:05:46;9.73;;;7.32;;
75061;SDS011;63641;46.526;24.612;2024-02-23T04:08:13;9.77;;;7.78;;
75061;SDS011;63641;46.526;24.612;2024-02-23T04:10:40;11.38;;;9.15;;
75061;SDS011;63641;46.526;24.612;2024-02-23T04:13:06;12.25;;;9.18;;
75061;SDS011;63641;46.526;24.612;2024-02-23T04:15:33;11.65;;;8.65;;
75061;SDS011;63641;46.526;24.612;2024-02-23T04:18:00;10.57;;;8.52;;
75061;SDS011;63641;46.526;24.612;2024-02-23T04:20:26;10.68;;;7.53;;
75061;SDS011;63641;46.526;24.612;2024-02-23T04:22:53;9.32;;;7.28;;
75061;SDS011;63641;46.526;24.612;2024-02-23T04:25:20;9.85;;;7.32;;
75061;SDS011;63641;46.526;24.612;2024-02-23T04:27:47;9.35;;;7.28;;
75061;SDS011;63641;46.526;24.612;2024-02-23T04:30:13;9.40;;;7.25;;
75061;SDS011;63641;46.526;24.612;2024-02-23T04:32:40;9.73;;;7.80;;
75061;SDS011;63641;46.526;24.612;2024-02-23T04:35:08;10.77;;;6.82;;
75061;SDS011;63641;46.526;24.612;2024-02-23T04:37:35;7.68;;;6.18;;
75061;SDS011;63641;46.526;24.612;2024-02-23T04:40:03;9.18;;;6.75;;
75061;SDS011;63641;46.526;24.612;2024-02-23T04:42:33;7.18;;;6.05;;
75061;SDS011;63641;46.526;24.612;2024-02-23T04:45:00;10.23;;;6.60;;
75061;SDS011;63641;46.526;24.612;2024-02-23T04:47:26;8.45;;;7.35;;
75061;SDS011;63641;46.526;24.612;2024-02-23T04:49:53;7.72;;;6.65;;
75061;SDS011;63641;46.526;24.612;2024-02-23T04:52:20;11.23;;;7.90;;
75061;SDS011;63641;46.526;24.612;2024-02-23T04:54:47;9.27;;;7.38;;
75061;SDS011;63641;46.526;24.612;2024-02-23T04:57:14;8.88;;;7.60;;
75061;SDS011;63641;46.526;24.612;2024-02-23T04:59:40;8.70;;;6.55;;
75061;SDS011;63641;46.526;24.612;2024-02-23T05:02:07;9.25;;;7.20;;
75061;SDS011;63641;46.526;24.612;2024-02-23T05:04:34;7.93;;;6.53;;
75061;SDS011;63641;46.526;24.612;2024-02-23T05:07:01;8.32;;;6.45;;
75061;SDS011;63641;46.526;24.612;2024-02-23T05:09:28;9.02;;;7.20;;
75061;SDS011;63641;46.526;24.612;2024-02-23T05:11:55;10.65;;;8.20;;
75061;SDS011;63641;46.526;24.612;2024-02-23T05:14:22;10.40;;;7.35;;
75061;SDS011;63641;46.526;24.612;2024-02-23T05:16:49;10.48;;;8.45;;
75061;SDS011;63641;46.526;24.612;2024-02-23T05:19:15;10.95;;;7.43;;
75061;SDS011;63641;46.526;24.612;2024-02-23T05:21:43;10.07;;;8.90;;
75061;SDS011;63641;46.526;24.612;2024-02-23T05:24:10;9.38;;;8.20;;
75061;SDS011;63641;46.526;24.612;2024-02-23T05:26:37;11.35;;;8.00;;
75061;SDS011;63641;46.526;24.612;2024-02-23T05:29:05;9.20;;;8.10;;
75061;SDS011;63641;46.526;24.612;2024-02-23T05:32:05;11.68;;;8.65;;
75061;SDS011;63641;46.526;24.612;2024-02-23T05:34:25;10.68;;;8.35;;
75061;SDS011;63641;46.526;24.612;2024-02-23T05:36:52;10.60;;;8.25;;
75061;SDS011;63641;46.526;24.612;2024-02-23T05:39:19;9.82;;;7.93;;
75061;SDS011;63641;46.526;24.612;2024-02-23T05:41:45;10.55;;;7.90;;
75061;SDS011;63641;46.526;24.612;2024-02-23T05:44:12;9.93;;;7.57;;
75061;SDS011;63641;46.526;24.612;2024-02-23T05:46:42;9.48;;;7.45;;
75061;SDS011;63641;46.526;24.612;2024-02-23T05:49:09;10.02;;;7.32;;
75061;SDS011;63641;46.526;24.612;2024-02-23T05:51:36;8.75;;;7.18;;
75061;SDS011;63641;46.526;24.612;2024-02-23T05:54:03;8.90;;;7.00;;
75061;SDS011;63641;46.526;24.612;2024-02-23T05:56:30;11.93;;;9.38;;
75061;SDS011;63641;46.526;24.612;2024-02-23T05:58:56;16.80;;;10.50;;
75061;SDS011;63641;46.526;24.612;2024-02-23T06:01:23;14.05;;;10.57;;
75061;SDS011;63641;46.526;24.612;2024-02-23T06:03:50;15.63;;;11.00;;
75061;SDS011;63641;46.526;24.612;2024-02-23T06:06:17;14.00;;;10.43;;
75061;SDS011;63641;46.526;24.612;2024-02-23T06:08:44;14.98;;;10.27;;
75061;SDS011;63641;46.526;24.612;2024-02-23T06:11:12;14.80;;;9.77;;
75061;SDS011;63641;46.526;24.612;2024-02-23T06:13:39;15.63;;;9.85;;
75061;SDS011;63641;46.526;24.612;2024-02-23T06:16:09;14.65;;;10.88;;
75061;SDS011;63641;46.526;24.612;2024-02-23T06:18:38;13.88;;;9.98;;
75061;SDS011;63641;46.526;24.612;2024-02-23T06:21:14;12.32;;;8.85;;
75061;SDS011;63641;46.526;24.612;2024-02-23T06:23:41;15.30;;;9.98;;
75061;SDS011;63641;46.526;24.612;2024-02-23T06:26:08;12.82;;;9.85;;
75061;SDS011;63641;46.526;24.612;2024-02-23T06:28:35;16.55;;;9.88;;
75061;SDS011;63641;46.526;24.612;2024-02-23T06:31:08;19.70;;;13.85;;
75061;SDS011;63641;46.526;24.612;2024-02-23T06:33:35;17.13;;;13.82;;
75061;SDS011;63641;46.526;24.612;2024-02-23T06:36:03;17.42;;;14.07;;
75061;SDS011;63641;46.526;24.612;2024-02-23T06:38:30;17.95;;;13.88;;
75061;SDS011;63641;46.526;24.612;2024-02-23T06:40:57;20.40;;;14.70;;
75061;SDS011;63641;46.526;24.612;2024-02-23T06:43:24;23.88;;;16.65;;
75061;SDS011;63641;46.526;24.612;2024-02-23T06:45:51;12.57;;;10.60;;
75061;SDS011;63641;46.526;24.612;2024-02-23T06:48:18;10.63;;;8.85;;
75061;SDS011;63641;46.526;24.612;2024-02-23T06:50:45;7.85;;;6.57;;
75061;SDS011;63641;46.526;24.612;2024-02-23T06:53:12;7.82;;;6.88;;
75061;SDS011;63641;46.526;24.612;2024-02-23T06:55:38;9.48;;;8.23;;
75061;SDS011;63641;46.526;24.612;2024-02-23T06:58:05;7.22;;;6.25;;
75061;SDS011;63641;46.526;24.612;2024-02-23T07:00:33;13.68;;;9.57;;
75061;SDS011;63641;46.526;24.612;2024-02-23T07:03:01;16.45;;;12.10;;
75061;SDS011;63641;46.526;24.612;2024-02-23T07:05:30;15.13;;;12.18;;
75061;SDS011;63641;46.526;24.612;2024-02-23T07:07:58;16.63;;;11.05;;
75061;SDS011;63641;46.526;24.612;2024-02-23T07:10:25;12.55;;;9.70;;
75061;SDS011;63641;46.526;24.612;2024-02-23T07:12:52;10.75;;;8.23;;
75061;SDS011;63641;46.526;24.612;2024-02-23T07:15:20;9.98;;;8.57;;
75061;SDS011;63641;46.526;24.612;2024-02-23T07:17:46;11.20;;;7.97;;
75061;SDS011;63641;46.526;24.612;2024-02-23T07:20:13;9.68;;;7.50;;
75061;SDS011;63641;46.526;24.612;2024-02-23T07:22:43;9.52;;;6.82;;
75061;SDS011;63641;46.526;24.612;2024-02-23T07:25:11;8.98;;;6.28;;
75061;SDS011;63641;46.526;24.612;2024-02-23T07:27:38;8.48;;;6.10;;
75061;SDS011;63641;46.526;24.612;2024-02-23T07:30:05;8.40;;;6.13;;
75061;SDS011;63641;46.526;24.612;2024-02-23T07:32:33;6.95;;;5.78;;
75061;SDS011;63641;46.526;24.612;2024-02-23T07:35:00;8.80;;;5.93;;
75061;SDS011;63641;46.526;24.612;2024-02-23T07:37:28;7.25;;;6.07;;
75061;SDS011;63641;46.526;24.612;2024-02-23T07:39:55;9.95;;;6.70;;
75061;SDS011;63641;46.526;24.612;2024-02-23T07:42:21;8.57;;;6.38;;
75061;SDS011;63641;46.526;24.612;2024-02-23T07:44:48;8.07;;;6.88;;
75061;SDS011;63641;46.526;24.612;2024-02-23T07:47:15;7.35;;;6.47;;
75061;SDS011;63641;46.526;24.612;2024-02-23T07:49:41;7.78;;;6.07;;
75061;SDS011;63641;46.526;24.612;2024-02-23T07:52:08;7.35;;;6.35;;
75061;SDS011;63641;46.526;24.612;2024-02-23T07:54:35;7.75;;;6.22;;
75061;SDS011;63641;46.526;24.612;2024-02-23T07:57:02;9.40;;;5.93;;
75061;SDS011;63641;46.526;24.612;2024-02-23T07:59:31;8.43;;;6.68;;
75061;SDS011;63641;46.526;24.612;2024-02-23T08:01:59;8.00;;;6.68;;
75061;SDS011;63641;46.526;24.612;2024-02-23T08:04:26;8.40;;;5.97;;
75061;SDS011;63641;46.526;24.612;2024-02-23T08:06:53;10.25;;;6.95;;
75061;SDS011;63641;46.526;24.612;2024-02-23T08:09:20;8.38;;;6.65;;
75061;SDS011;63641;46.526;24.612;2024-02-23T08:11:48;7.68;;;6.43;;
75061;SDS011;63641;46.526;24.612;2024-02-23T08:14:15;8.60;;;6.65;;
75061;SDS011;63641;46.526;24.612;2024-02-23T08:16:42;9.32;;;7.07;;
75061;SDS011;63641;46.526;24.612;2024-02-23T08:19:09;10.25;;;5.82;;
75061;SDS011;63641;46.526;24.612;2024-02-23T08:21:36;10.98;;;7.03;;
75061;SDS011;63641;46.526;24.612;2024-02-23T08:24:02;9.18;;;6.47;;
75061;SDS011;63641;46.526;24.612;2024-02-23T08:26:30;7.95;;;6.50;;
75061;SDS011;63641;46.526;24.612;2024-02-23T08:28:57;8.38;;;6.00;;
75061;SDS011;63641;46.526;24.612;2024-02-23T08:31:23;7.93;;;5.88;;
75061;SDS011;63641;46.526;24.612;2024-02-23T08:33:50;9.35;;;6.00;;
75061;SDS011;63641;46.526;24.612;2024-02-23T08:36:17;9.05;;;6.53;;
75061;SDS011;63641;46.526;24.612;2024-02-23T08:38:44;7.45;;;6.32;;
75061;SDS011;63641;46.526;24.612;2024-02-23T08:41:11;7.80;;;6.47;;
75061;SDS011;63641;46.526;24.612;2024-02-23T08:43:37;8.10;;;6.25;;
75061;SDS011;63641;46.526;24.612;2024-02-23T08:46:04;9.15;;;6.05;;
75061;SDS011;63641;46.526;24.612;2024-02-23T08:48:35;10.05;;;7.22;;
75061;SDS011;63641;46.526;24.612;2024-02-23T08:51:02;8.68;;;6.85;;
75061;SDS011;63641;46.526;24.612;2024-02-23T08:53:29;7.93;;;6.50;;
75061;SDS011;63641;46.526;24.612;2024-02-23T08:55:56;10.35;;;7.75;;
75061;SDS011;63641;46.526;24.612;2024-02-23T08:58:24;8.63;;;6.60;;
75061;SDS011;63641;46.526;24.612;2024-02-23T09:00:50;7.18;;;6.30;;
75061;SDS011;63641;46.526;24.612;2024-02-23T09:03:17;11.57;;;6.95;;
75061;SDS011;63641;46.526;24.612;2024-02-23T09:05:44;8.38;;;6.65;;
75061;SDS011;63641;46.526;24.612;2024-02-23T09:08:13;9.20;;;6.28;;
75061;SDS011;63641;46.526;24.612;2024-02-23T09:10:41;8.52;;;6.70;;
75061;SDS011;63641;46.526;24.612;2024-02-23T09:13:07;9.77;;;5.93;;
75061;SDS011;63641;46.526;24.612;2024-02-23T09:15:34;7.00;;;5.40;;
75061;SDS011;63641;46.526;24.612;2024-02-23T09:18:01;7.85;;;5.93;;
75061;SDS011;63641;46.526;24.612;2024-02-23T09:20:28;6.57;;;5.60;;
75061;SDS011;63641;46.526;24.612;2024-02-23T09:22:57;6.93;;;5.00;;
75061;SDS011;63641;46.526;24.612;2024-02-23T09:25:24;7.75;;;4.68;;
75061;SDS011;63641;46.526;24.612;2024-02-23T09:27:50;4.75;;;4.18;;
75061;SDS011;63641;46.526;24.612;2024-02-23T09:30:17;5.43;;;4.57;;
75061;SDS011;63641;46.526;24.612;2024-02-23T09:32:44;5.25;;;4.40;;
75061;SDS011;63641;46.526;24.612;2024-02-23T09:35:11;5.60;;;4.65;;
75061;SDS011;63641;46.526;24.612;2024-02-23T09:37:38;5.93;;;4.60;;
75061;SDS011;63641;46.526;24.612;2024-02-23T09:40:05;6.05;;;4.60;;
75061;SDS011;63641;46.526;24.612;2024-02-23T09:42:33;5.43;;;4.60;;
75061;SDS011;63641;46.526;24.612;2024-02-23T09:45:01;4.03;;;3.60;;
75061;SDS011;63641;46.526;24.612;2024-02-23T09:47:28;3.88;;;3.47;;
75061;SDS011;63641;46.526;24.612;2024-02-23T09:49:56;5.18;;;3.95;;
75061;SDS011;63641;46.526;24.612;2024-02-23T09:52:22;5.35;;;4.20;;
75061;SDS011;63641;46.526;24.612;2024-02-23T09:54:49;5.93;;;4.65;;
75061;SDS011;63641;46.526;24.612;2024-02-23T09:57:16;5.32;;;3.90;;
75061;SDS011;63641;46.526;24.612;2024-02-23T09:59:47;4.63;;;4.13;;
75061;SDS011;63641;46.526;24.612;2024-02-23T10:02:17;5.05;;;3.92;;
75061;SDS011;63641;46.526;24.612;2024-02-23T10:04:44;4.15;;;3.53;;
75061;SDS011;63641;46.526;24.612;2024-02-23T10:07:14;4.28;;;3.50;;
75061;SDS011;63641;46.526;24.612;2024-02-23T10:09:42;4.32;;;3.90;;
75061;SDS011;63641;46.526;24.612;2024-02-23T10:12:09;4.15;;;3.58;;
75061;SDS011;63641;46.526;24.612;2024-02-23T10:14:36;5.20;;;3.45;;
75061;SDS011;63641;46.526;24.612;2024-02-23T10:17:03;5.85;;;3.90;;
75061;SDS011;63641;46.526;24.612;2024-02-23T10:19:33;4.45;;;3.85;;
75061;SDS011;63641;46.526;24.612;2024-02-23T10:22:00;4.75;;;4.10;;
75061;SDS011;63641;46.526;24.612;2024-02-23T10:24:27;4.93;;;4.03;;
75061;SDS011;63641;46.526;24.612;2024-02-23T10:26:54;6.25;;;4.18;;
75061;SDS011;63641;46.526;24.612;2024-02-23T10:29:21;4.22;;;3.50;;
75061;SDS011;63641;46.526;24.612;2024-02-23T10:31:48;9.73;;;5.85;;
75061;SDS011;63641;46.526;24.612;2024-02-23T10:34:19;6.90;;;4.97;;
75061;SDS011;63641;46.526;24.612;2024-02-23T10:36:49;7.80;;;5.35;;
75061;SDS011;63641;46.526;24.612;2024-02-23T10:39:17;5.50;;;4.22;;
75061;SDS011;63641;46.526;24.612;2024-02-23T10:41:53;4.80;;;3.85;;
75061;SDS011;63641;46.526;24.612;2024-02-23T10:44:25;4.35;;;3.35;;
75061;SDS011;63641;46.526;24.612;2024-02-23T10:46:55;4.38;;;3.38;;
75061;SDS011;63641;46.526;24.612;2024-02-23T10:49:23;4.57;;;3.55;;
75061;SDS011;63641;46.526;24.612;2024-02-23T10:51:53;4.30;;;3.40;;
75061;SDS011;63641;46.526;24.612;2024-02-23T10:54:21;4.28;;;3.10;;
75061;SDS011;63641;46.526;24.612;2024-02-23T10:56:49;4.05;;;3.10;;
75061;SDS011;63641;46.526;24.612;2024-02-23T10:59:17;4.30;;;2.90;;
75061;SDS011;63641;46.526;24.612;2024-02-23T11:01:48;3.53;;;2.95;;
75061;SDS011;63641;46.526;24.612;2024-02-23T11:04:17;4.53;;;3.25;;
75061;SDS011;63641;46.526;24.612;2024-02-23T11:06:50;17.05;;;4.78;;
75061;SDS011;63641;46.526;24.612;2024-02-23T11:09:20;4.55;;;2.95;;
75061;SDS011;63641;46.526;24.612;2024-02-23T11:11:52;4.15;;;3.55;;
75061;SDS011;63641;46.526;24.612;2024-02-23T11:14:32;3.30;;;3.00;;
75061;SDS011;63641;46.526;24.612;2024-02-23T11:17:02;3.42;;;3.10;;
75061;SDS011;63641;46.526;24.612;2024-02-23T11:19:34;4.63;;;3.67;;
75061;SDS011;63641;46.526;24.612;2024-02-23T11:22:02;5.45;;;3.33;;
75061;SDS011;63641;46.526;24.612;2024-02-23T11:24:30;4.00;;;3.20;;
75061;SDS011;63641;46.526;24.612;2024-02-23T11:26:59;4.07;;;3.08;;
75061;SDS011;63641;46.526;24.612;2024-02-23T11:29:34;4.43;;;3.03;;
75061;SDS011;63641;46.526;24.612;2024-02-23T11:32:03;3.85;;;3.35;;
75061;SDS011;63641;46.526;24.612;2024-02-23T11:34:30;22.48;;;4.07;;
75061;SDS011;63641;46.526;24.612;2024-02-23T11:36:57;3.88;;;3.22;;
75061;SDS011;63641;46.526;24.612;2024-02-23T11:39:33;4.05;;;2.85;;
75061;SDS011;63641;46.526;24.612;2024-02-23T11:42:04;3.72;;;2.92;;
75061;SDS011;63641;46.526;24.612;2024-02-23T11:44:32;4.13;;;3.72;;
75061;SDS011;63641;46.526;24.612;2024-02-23T11:46:58;8.75;;;3.45;;
75061;SDS011;63641;46.526;24.612;2024-02-23T11:49:29;3.63;;;3.03;;
75061;SDS011;63641;46.526;24.612;2024-02-23T11:51:56;4.20;;;3.80;;
75061;SDS011;63641;46.526;24.612;2024-02-23T11:54:23;5.40;;;3.80;;
75061;SDS011;63641;46.526;24.612;2024-02-23T11:56:50;6.18;;;4.00;;
75061;SDS011;63641;46.526;24.612;2024-02-23T11:59:19;5.70;;;4.70;;
75061;SDS011;63641;46.526;24.612;2024-02-23T12:01:46;3.67;;;3.38;;
75061;SDS011;63641;46.526;24.612;2024-02-23T12:04:16;4.63;;;3.10;;
75061;SDS011;63641;46.526;24.612;2024-02-23T12:06:43;4.80;;;2.95;;
75061;SDS011;63641;46.526;24.612;2024-02-23T12:09:10;4.25;;;3.55;;
75061;SDS011;63641;46.526;24.612;2024-02-23T12:11:38;3.65;;;3.22;;
75061;SDS011;63641;46.526;24.612;2024-02-23T12:14:06;4.22;;;3.28;;
75061;SDS011;63641;46.526;24.612;2024-02-23T12:16:36;3.28;;;2.95;;
75061;SDS011;63641;46.526;24.612;2024-02-23T12:19:03;4.00;;;3.53;;
75061;SDS011;63641;46.526;24.612;2024-02-23T12:21:30;5.25;;;4.35;;
75061;SDS011;63641;46.526;24.612;2024-02-23T12:23:56;4.05;;;3.50;;
75061;SDS011;63641;46.526;24.612;2024-02-23T12:26:23;5.38;;;4.15;;
75061;SDS011;63641;46.526;24.612;2024-02-23T12:28:50;4.55;;;3.78;;
75061;SDS011;63641;46.526;24.612;2024-02-23T12:31:22;5.63;;;4.60;;
75061;SDS011;63641;46.526;24.612;2024-02-23T12:33:50;4.90;;;3.65;;
75061;SDS011;63641;46.526;24.612;2024-02-23T12:36:17;5.43;;;4.00;;
75061;SDS011;63641;46.526;24.612;2024-02-23T12:38:44;5.65;;;3.90;;
75061;SDS011;63641;46.526;24.612;2024-02-23T12:41:12;4.85;;;3.90;;
75061;SDS011;63641;46.526;24.612;2024-02-23T12:43:38;4.13;;;3.45;;
75061;SDS011;63641;46.526;24.612;2024-02-23T12:46:08;3.83;;;3.17;;
75061;SDS011;63641;46.526;24.612;2024-02-23T12:48:35;4.20;;;3.50;;
75061;SDS011;63641;46.526;24.612;2024-02-23T12:51:02;5.25;;;4.05;;
75061;SDS011;63641;46.526;24.612;2024-02-23T12:56:03;4.30;;;3.80;;
75061;SDS011;63641;46.526;24.612;2024-02-23T12:58:31;5.00;;;3.45;;
75061;SDS011;63641;46.526;24.612;2024-02-23T13:00:58;3.50;;;3.20;;
75061;SDS011;63641;46.526;24.612;2024-02-23T13:03:26;3.83;;;3.47;;
75061;SDS011;63641;46.526;24.612;2024-02-23T13:05:56;4.32;;;3.60;;
75061;SDS011;63641;46.526;24.612;2024-02-23T13:08:24;4.97;;;4.00;;
75061;SDS011;63641;46.526;24.612;2024-02-23T13:10:52;5.30;;;3.92;;
75061;SDS011;63641;46.526;24.612;2024-02-23T13:13:20;5.97;;;4.30;;
75061;SDS011;63641;46.526;24.612;2024-02-23T13:15:48;4.28;;;3.88;;
75061;SDS011;63641;46.526;24.612;2024-02-23T13:18:17;5.40;;;3.78;;
75061;SDS011;63641;46.526;24.612;2024-02-23T13:20:44;4.95;;;3.92;;
75061;SDS011;63641;46.526;24.612;2024-02-23T13:23:11;4.63;;;3.45;;
75061;SDS011;63641;46.526;24.612;2024-02-23T13:25:39;5.05;;;3.55;;
75061;SDS011;63641;46.526;24.612;2024-02-23T13:28:07;4.03;;;3.63;;
75061;SDS011;63641;46.526;24.612;2024-02-23T13:30:35;4.60;;;3.55;;
75061;SDS011;63641;46.526;24.612;2024-02-23T13:33:03;4.00;;;3.60;;
75061;SDS011;63641;46.526;24.612;2024-02-23T13:35:31;5.55;;;3.80;;
75061;SDS011;63641;46.526;24.612;2024-02-23T13:37:59;4.63;;;3.95;;
75061;SDS011;63641;46.526;24.612;2024-02-23T13:40:26;5.78;;;3.83;;
75061;SDS011;63641;46.526;24.612;2024-02-23T13:42:53;5.43;;;3.67;;
75061;SDS011;63641;46.526;24.612;2024-02-23T13:45:20;4.35;;;3.75;;
75061;SDS011;63641;46.526;24.612;2024-02-23T13:48:02;4.65;;;3.78;;
75061;SDS011;63641;46.526;24.612;2024-02-23T13:50:31;4.70;;;3.70;;
75061;SDS011;63641;46.526;24.612;2024-02-23T13:53:01;4.75;;;3.90;;
75061;SDS011;63641;46.526;24.612;2024-02-23T13:55:28;5.10;;;4.00;;
75061;SDS011;63641;46.526;24.612;2024-02-23T13:57:55;4.40;;;3.45;;
75061;SDS011;63641;46.526;24.612;2024-02-23T14:00:21;4.40;;;3.70;;
75061;SDS011;63641;46.526;24.612;2024-02-23T14:02:48;5.03;;;3.65;;
75061;SDS011;63641;46.526;24.612;2024-02-23T14:05:15;4.55;;;3.70;;
75061;SDS011;63641;46.526;24.612;2024-02-23T14:07:45;5.38;;;4.25;;
75061;SDS011;63641;46.526;24.612;2024-02-23T14:10:11;5.47;;;3.75;;
75061;SDS011;63641;46.526;24.612;2024-02-23T14:12:38;4.65;;;3.90;;
75061;SDS011;63641;46.526;24.612;2024-02-23T14:15:07;4.30;;;3.53;;
75061;SDS011;63641;46.526;24.612;2024-02-23T14:17:35;4.72;;;3.80;;
75061;SDS011;63641;46.526;24.612;2024-02-23T14:20:03;4.35;;;3.55;;
75061;SDS011;63641;46.526;24.612;2024-02-23T14:22:31;5.15;;;4.05;;
75061;SDS011;63641;46.526;24.612;2024-02-23T14:24:58;8.57;;;4.38;;
75061;SDS011;63641;46.526;24.612;2024-02-23T14:27:25;7.47;;;4.30;;
75061;SDS011;63641;46.526;24.612;2024-02-23T14:29:57;4.28;;;3.80;;
75061;SDS011;63641;46.526;24.612;2024-02-23T14:32:24;5.53;;;4.00;;
75061;SDS011;63641;46.526;24.612;2024-02-23T14:34:51;5.30;;;4.32;;
75061;SDS011;63641;46.526;24.612;2024-02-23T14:37:18;5.80;;;4.38;;